Time;durP1;ratioP1;P1;durP2;ratioP2;P2;SDS_P1;SDS_P2;PMS_P1;PMS_P2;Temp;Humidity;BMP_temperature;BMP_pressure;BME280_temperature;BME280_humidity;BME280_pressure;Samples;Min_cycle;Max_cycle;Signal;HPM_P1;HPM_P2
2021/07/19 00:02:25;;;;;;;8.40;3.80;;;;;;;;;;5042935;28;20389;-80
2021/07/19 00:04:50;;;;;;;9.73;4.32;;;;;;;;;;5040206;28;20029;-79
2021/07/19 00:07:16;;;;;;;8.50;4.80;;;;;;;;;;5038416;28;20535;-79
2021/07/19 00:09:44;;;;;;;8.00;4.38;;;;;;;;;;5038155;28;20037;-80
2021/07/19 00:12:11;;;;;;;6.78;3.85;;;;;;;;;;5046523;28;20054;-80
2021/07/19 00:14:37;;;;;;;7.82;4.05;;;;;;;;;;5032609;28;20056;-80
2021/07/19 00:17:03;;;;;;;5.53;4.28;;;;;;;;;;5046880;28;20056;-80
2021/07/19 00:19:29;;;;;;;5.93;3.90;;;;;;;;;;5040660;28;20020;-79
2021/07/19 00:21:55;;;;;;;6.53;4.05;;;;;;;;;;5041537;28;20032;-79
2021/07/19 00:24:21;;;;;;;9.77;4.10;;;;;;;;;;5036291;28;20032;-79
2021/07/19 00:26:46;;;;;;;7.45;3.80;;;;;;;;;;5042962;28;20096;-80
2021/07/19 00:29:12;;;;;;;7.43;4.00;;;;;;;;;;5036464;28;20048;-79
2021/07/19 00:31:38;;;;;;;5.10;3.67;;;;;;;;;;5030837;28;20111;-79
2021/07/19 00:34:04;;;;;;;5.97;3.85;;;;;;;;;;5040064;28;20457;-79
2021/07/19 00:36:31;;;;;;;8.27;4.30;;;;;;;;;;5044564;28;20039;-80
2021/07/19 00:38:57;;;;;;;5.95;3.95;;;;;;;;;;5040293;28;20025;-79
2021/07/19 00:41:23;;;;;;;6.32;4.43;;;;;;;;;;5042308;28;20369;-79
2021/07/19 00:43:49;;;;;;;6.80;4.28;;;;;;;;;;5034609;28;20529;-79
2021/07/19 00:46:14;;;;;;;6.07;4.25;;;;;;;;;;5041399;28;20079;-79
2021/07/19 00:48:42;;;;;;;5.72;4.28;;;;;;;;;;5047185;28;20029;-80
2021/07/19 00:51:08;;;;;;;8.02;4.45;;;;;;;;;;5041982;28;20108;-79
2021/07/19 00:53:34;;;;;;;7.32;4.70;;;;;;;;;;5032327;28;20105;-81
2021/07/19 00:56:01;;;;;;;8.80;4.70;;;;;;;;;;5034877;28;20397;-80
2021/07/19 00:58:29;;;;;;;6.28;4.30;;;;;;;;;;5030271;28;20485;-79
2021/07/19 01:00:57;;;;;;;6.75;4.10;;;;;;;;;;5045174;28;20029;-79
2021/07/19 01:03:24;;;;;;;8.13;4.70;;;;;;;;;;5038772;28;20129;-79
2021/07/19 01:05:50;;;;;;;6.20;4.32;;;;;;;;;;5038670;28;20171;-78
2021/07/19 01:08:18;;;;;;;9.32;4.22;;;;;;;;;;5034987;28;20021;-79
2021/07/19 01:10:44;;;;;;;6.30;4.60;;;;;;;;;;5039286;28;20437;-79
2021/07/19 01:13:09;;;;;;;4.72;3.85;;;;;;;;;;5041488;28;20032;-78
2021/07/19 01:15:37;;;;;;;5.85;4.30;;;;;;;;;;5037063;28;20031;-78
2021/07/19 01:18:04;;;;;;;5.70;3.85;;;;;;;;;;5036988;28;20033;-79
2021/07/19 01:20:34;;;;;;;6.97;4.38;;;;;;;;;;5038876;28;20523;-80
2021/07/19 01:23:27;;;;;;;5.90;4.40;;;;;;;;;;5038731;28;20285;-79
2021/07/19 01:25:58;;;;;;;9.15;4.40;;;;;;;;;;5046186;28;20055;-79
2021/07/19 01:28:49;;;;;;;7.43;4.20;;;;;;;;;;5037324;28;20018;-79
2021/07/19 01:31:16;;;;;;;8.40;4.05;;;;;;;;;;5044231;28;20032;-78
2021/07/19 01:33:50;;;;;;;7.35;4.30;;;;;;;;;;5037133;28;20035;-79
2021/07/19 01:36:20;;;;;;;9.95;4.18;;;;;;;;;;5045669;28;20020;-79
2021/07/19 01:38:46;;;;;;;7.30;4.07;;;;;;;;;;5044316;28;20075;-79
2021/07/19 01:41:13;;;;;;;5.80;4.30;;;;;;;;;;5038243;28;20523;-79
2021/07/19 01:43:39;;;;;;;7.95;4.10;;;;;;;;;;5035055;28;20108;-79
2021/07/19 01:46:05;;;;;;;7.57;4.30;;;;;;;;;;5039661;28;20441;-79
2021/07/19 01:48:32;;;;;;;8.38;3.95;;;;;;;;;;5041088;28;20029;-79
2021/07/19 01:51:01;;;;;;;6.13;4.38;;;;;;;;;;5030791;28;20029;-79
2021/07/19 01:53:29;;;;;;;6.25;4.60;;;;;;;;;;5039397;28;20033;-79
2021/07/19 01:55:56;;;;;;;8.80;4.60;;;;;;;;;;5058958;28;20035;-78
2021/07/19 01:58:23;;;;;;;7.13;4.20;;;;;;;;;;5033464;28;20075;-79
2021/07/19 02:00:48;;;;;;;6.07;3.95;;;;;;;;;;5038781;28;20048;-79
2021/07/19 02:03:13;;;;;;;7.78;4.25;;;;;;;;;;5039358;28;20485;-79
2021/07/19 02:05:41;;;;;;;9.25;4.60;;;;;;;;;;5034496;28;20036;-79
2021/07/19 02:08:07;;;;;;;8.00;3.72;;;;;;;;;;5037330;28;20481;-79
2021/07/19 02:10:34;;;;;;;12.13;4.18;;;;;;;;;;5043018;28;20044;-78
2021/07/19 02:13:03;;;;;;;5.22;4.03;;;;;;;;;;5046865;28;20021;-80
2021/07/19 02:15:29;;;;;;;10.68;4.15;;;;;;;;;;5042097;28;20079;-79
2021/07/19 02:17:58;;;;;;;6.43;3.63;;;;;;;;;;5042796;28;20033;-79
2021/07/19 02:20:25;;;;;;;6.15;4.13;;;;;;;;;;5040101;28;20045;-78
2021/07/19 02:22:51;;;;;;;7.45;4.20;;;;;;;;;;5045054;28;20084;-78
2021/07/19 02:25:18;;;;;;;6.57;4.22;;;;;;;;;;5043409;28;20174;-78
2021/07/19 02:27:46;;;;;;;6.53;4.05;;;;;;;;;;5039460;28;20108;-78
2021/07/19 02:30:14;;;;;;;6.18;4.35;;;;;;;;;;5034855;28;20029;-79
2021/07/19 02:32:46;;;;;;;5.32;4.50;;;;;;;;;;5038698;28;20029;-78
2021/07/19 02:35:14;;;;;;;6.28;3.95;;;;;;;;;;5042299;28;20029;-78
2021/07/19 02:37:42;;;;;;;7.60;4.38;;;;;;;;;;5040246;28;20429;-79
2021/07/19 02:40:09;;;;;;;5.72;4.43;;;;;;;;;;5041452;28;20362;-79
2021/07/19 02:42:37;;;;;;;7.20;4.10;;;;;;;;;;5047079;28;20029;-78
2021/07/19 02:45:06;;;;;;;8.35;4.60;;;;;;;;;;5048240;28;20040;-78
2021/07/19 02:47:33;;;;;;;12.57;4.20;;;;;;;;;;5039774;28;20028;-79
2021/07/19 02:50:00;;;;;;;6.18;4.22;;;;;;;;;;5047897;28;20052;-79
2021/07/19 02:52:25;;;;;;;11.00;4.53;;;;;;;;;;5044463;28;20024;-79
2021/07/19 02:54:52;;;;;;;6.28;4.47;;;;;;;;;;5040076;28;20400;-79
2021/07/19 02:57:17;;;;;;;7.18;4.25;;;;;;;;;;5035432;28;20476;-79
2021/07/19 02:59:43;;;;;;;7.15;3.85;;;;;;;;;;5049365;28;20061;-79
2021/07/19 03:02:10;;;;;;;6.38;4.32;;;;;;;;;;5039074;28;20025;-79
2021/07/19 03:04:38;;;;;;;5.85;4.63;;;;;;;;;;5031837;28;20071;-79
2021/07/19 03:07:06;;;;;;;6.65;4.20;;;;;;;;;;5045245;28;20032;-79
2021/07/19 03:09:34;;;;;;;9.38;4.95;;;;;;;;;;5038894;28;20408;-79
2021/07/19 03:12:00;;;;;;;7.32;4.15;;;;;;;;;;5038755;28;20022;-79
2021/07/19 03:14:28;;;;;;;8.57;4.78;;;;;;;;;;5038074;28;20497;-79
2021/07/19 03:16:55;;;;;;;9.90;4.25;;;;;;;;;;5044142;28;20107;-80
2021/07/19 03:19:23;;;;;;;9.90;4.55;;;;;;;;;;5048396;28;20029;-78
2021/07/19 03:21:53;;;;;;;7.88;4.55;;;;;;;;;;5048467;28;20416;-78
2021/07/19 03:24:19;;;;;;;8.57;4.72;;;;;;;;;;5044222;28;20025;-79
2021/07/19 03:26:45;;;;;;;6.43;4.20;;;;;;;;;;5036410;28;20032;-78
2021/07/19 03:29:13;;;;;;;6.70;4.53;;;;;;;;;;5031004;28;20024;-80
2021/07/19 03:31:39;;;;;;;6.20;4.68;;;;;;;;;;5039803;28;20029;-80
2021/07/19 03:34:06;;;;;;;6.95;4.60;;;;;;;;;;5042762;28;20025;-80
2021/07/19 03:36:33;;;;;;;7.82;4.50;;;;;;;;;;5042484;28;20033;-79
2021/07/19 03:39:01;;;;;;;7.22;4.85;;;;;;;;;;5045035;28;20033;-80
2021/07/19 03:41:32;;;;;;;10.18;4.53;;;;;;;;;;5038461;28;20028;-79
2021/07/19 03:43:59;;;;;;;5.30;4.40;;;;;;;;;;5040241;28;20025;-80
2021/07/19 03:46:26;;;;;;;7.97;4.82;;;;;;;;;;5044354;28;20108;-80
2021/07/19 03:48:52;;;;;;;11.52;5.40;;;;;;;;;;5042971;28;20028;-80
2021/07/19 03:51:19;;;;;;;9.60;5.15;;;;;;;;;;5043022;28;20020;-79
2021/07/19 03:53:45;;;;;;;8.30;5.68;;;;;;;;;;5046181;28;20413;-79
2021/07/19 03:56:11;;;;;;;8.20;4.40;;;;;;;;;;5046663;28;20054;-80
2021/07/19 03:58:37;;;;;;;5.63;4.57;;;;;;;;;;5032922;28;20470;-80
2021/07/19 04:01:04;;;;;;;8.02;4.57;;;;;;;;;;5048636;28;20029;-79
2021/07/19 04:03:44;;;;;;;6.57;4.47;;;;;;;;;;5043068;28;20142;-79
2021/07/19 04:06:11;;;;;;;11.13;5.15;;;;;;;;;;5039797;28;20033;-79
2021/07/19 04:08:39;;;;;;;10.27;4.95;;;;;;;;;;5032914;28;20048;-80
2021/07/19 04:11:05;;;;;;;7.00;4.70;;;;;;;;;;5037728;28;20432;-80
2021/07/19 04:13:30;;;;;;;9.45;5.57;;;;;;;;;;5047079;28;20028;-79
2021/07/19 04:15:58;;;;;;;9.75;5.32;;;;;;;;;;5034272;28;20029;-79
2021/07/19 04:18:24;;;;;;;8.50;4.93;;;;;;;;;;5041897;28;20132;-79
2021/07/19 04:20:51;;;;;;;9.93;5.10;;;;;;;;;;5033585;28;20116;-80
2021/07/19 04:23:17;;;;;;;8.77;5.25;;;;;;;;;;5040918;28;20036;-79
2021/07/19 04:25:46;;;;;;;8.30;5.75;;;;;;;;;;5037874;28;20036;-79
2021/07/19 04:28:18;;;;;;;9.43;5.25;;;;;;;;;;5040925;28;20028;-79
2021/07/19 04:30:46;;;;;;;10.20;5.03;;;;;;;;;;5039692;28;20166;-79
2021/07/19 04:33:18;;;;;;;13.95;6.57;;;;;;;;;;5038324;28;20036;-79
2021/07/19 04:35:48;;;;;;;13.65;8.05;;;;;;;;;;5044711;28;20040;-79
2021/07/19 04:38:18;;;;;;;12.93;6.38;;;;;;;;;;5038049;28;20115;-79
2021/07/19 04:40:50;;;;;;;9.50;5.70;;;;;;;;;;5041914;28;20580;-79
2021/07/19 04:43:16;;;;;;;9.38;5.57;;;;;;;;;;5044860;28;20050;-79
2021/07/19 04:45:43;;;;;;;8.45;5.65;;;;;;;;;;5043229;28;20150;-79
2021/07/19 04:48:08;;;;;;;9.57;5.63;;;;;;;;;;5042299;28;20044;-79
2021/07/19 04:50:34;;;;;;;10.57;5.45;;;;;;;;;;5038659;28;20472;-79
2021/07/19 04:53:00;;;;;;;7.75;5.47;;;;;;;;;;5036613;28;20393;-79
2021/07/19 04:55:27;;;;;;;8.00;4.90;;;;;;;;;;5034385;28;20028;-79
2021/07/19 04:57:56;;;;;;;8.85;5.60;;;;;;;;;;5042819;28;20031;-79
2021/07/19 05:00:23;;;;;;;11.13;6.22;;;;;;;;;;5033901;28;20695;-79
2021/07/19 05:02:50;;;;;;;10.63;6.50;;;;;;;;;;5039557;28;20028;-79
2021/07/19 05:05:18;;;;;;;13.63;6.22;;;;;;;;;;5044465;28;20059;-79
2021/07/19 05:07:46;;;;;;;12.10;6.07;;;;;;;;;;5045268;28;20036;-80
2021/07/19 05:10:19;;;;;;;8.68;5.80;;;;;;;;;;5045815;28;20112;-79
2021/07/19 05:12:51;;;;;;;12.02;5.75;;;;;;;;;;5039721;28;20025;-79
2021/07/19 05:15:17;;;;;;;9.07;5.38;;;;;;;;;;5037728;28;20031;-79
2021/07/19 05:17:43;;;;;;;10.73;6.20;;;;;;;;;;5040689;28;20029;-79
2021/07/19 05:20:12;;;;;;;11.30;6.38;;;;;;;;;;5038568;28;20076;-78
2021/07/19 05:22:37;;;;;;;11.45;7.03;;;;;;;;;;5033724;28;20029;-78
2021/07/19 05:25:03;;;;;;;13.10;6.75;;;;;;;;;;5043973;28;20120;-80
2021/07/19 05:27:29;;;;;;;9.93;6.07;;;;;;;;;;5041201;28;20615;-79
2021/07/19 05:29:54;;;;;;;9.90;6.53;;;;;;;;;;5041570;28;20048;-79
2021/07/19 05:32:20;;;;;;;10.25;6.07;;;;;;;;;;5057998;28;20063;-79
2021/07/19 05:34:45;;;;;;;10.75;6.22;;;;;;;;;;5043460;28;20028;-79
2021/07/19 05:37:11;;;;;;;12.43;6.60;;;;;;;;;;5032851;28;20030;-79
2021/07/19 05:39:36;;;;;;;9.82;6.05;;;;;;;;;;5034565;28;20119;-77
2021/07/19 05:42:02;;;;;;;12.25;6.53;;;;;;;;;;5035073;28;20052;-77
2021/07/19 05:44:27;;;;;;;12.70;7.03;;;;;;;;;;5040973;28;20026;-77
2021/07/19 05:46:53;;;;;;;12.40;6.63;;;;;;;;;;5045623;28;20460;-76
2021/07/19 05:49:20;;;;;;;10.38;7.20;;;;;;;;;;5038490;28;20029;-77
2021/07/19 05:51:45;;;;;;;10.07;6.72;;;;;;;;;;5046961;28;20231;-77
2021/07/19 05:54:11;;;;;;;12.10;7.68;;;;;;;;;;5049669;28;20203;-76
2021/07/19 05:56:36;;;;;;;10.95;7.22;;;;;;;;;;5044920;28;20021;-76
2021/07/19 05:59:03;;;;;;;11.38;8.20;;;;;;;;;;5046894;28;20469;-76
2021/07/19 06:01:28;;;;;;;17.08;9.05;;;;;;;;;;5040196;28;20030;-76
2021/07/19 06:03:54;;;;;;;12.70;9.18;;;;;;;;;;5044490;28;20382;-76
2021/07/19 06:06:19;;;;;;;15.60;9.50;;;;;;;;;;5048075;28;20036;-76
2021/07/19 06:08:45;;;;;;;15.82;8.95;;;;;;;;;;5048585;28;20021;-76
2021/07/19 06:11:10;;;;;;;20.50;10.13;;;;;;;;;;5046258;28;20040;-76
2021/07/19 06:13:36;;;;;;;15.88;8.85;;;;;;;;;;5036956;28;20026;-76
2021/07/19 06:16:01;;;;;;;15.27;9.50;;;;;;;;;;5038722;28;20036;-76
2021/07/19 06:18:26;;;;;;;13.85;8.70;;;;;;;;;;5061958;28;20484;-77
2021/07/19 06:20:52;;;;;;;14.32;8.73;;;;;;;;;;5043660;28;20033;-77
2021/07/19 06:23:18;;;;;;;14.93;9.18;;;;;;;;;;5047003;28;20039;-76
2021/07/19 06:25:43;;;;;;;17.58;9.30;;;;;;;;;;5063889;28;20381;-75
2021/07/19 06:28:10;;;;;;;13.38;8.98;;;;;;;;;;5048370;28;20079;-76
2021/07/19 06:30:36;;;;;;;13.95;8.73;;;;;;;;;;5047038;28;20029;-79
2021/07/19 06:33:02;;;;;;;12.80;7.82;;;;;;;;;;5046038;28;20031;-79
2021/07/19 06:35:28;;;;;;;11.27;7.70;;;;;;;;;;5038060;28;20440;-78
2021/07/19 06:37:54;;;;;;;12.93;8.75;;;;;;;;;;5039838;28;20136;-79
2021/07/19 06:40:20;;;;;;;15.57;9.50;;;;;;;;;;5036784;28;20460;-79
2021/07/19 06:42:46;;;;;;;11.85;8.48;;;;;;;;;;5042264;28;20027;-79
2021/07/19 06:45:13;;;;;;;15.07;7.88;;;;;;;;;;5046645;28;20097;-79
2021/07/19 06:47:39;;;;;;;12.70;8.27;;;;;;;;;;5043706;28;20144;-79
2021/07/19 06:50:07;;;;;;;16.77;9.30;;;;;;;;;;5046276;28;20469;-78
2021/07/19 06:52:32;;;;;;;11.75;7.63;;;;;;;;;;5037716;28;20029;-79
2021/07/19 06:54:58;;;;;;;14.57;8.20;;;;;;;;;;5040318;28;20452;-79
2021/07/19 06:57:23;;;;;;;12.55;8.43;;;;;;;;;;5039950;28;20033;-78
2021/07/19 06:59:49;;;;;;;13.30;8.05;;;;;;;;;;5033602;28;20033;-77
2021/07/19 07:02:15;;;;;;;13.90;8.48;;;;;;;;;;5033475;28;20029;-77
2021/07/19 07:04:42;;;;;;;17.88;9.38;;;;;;;;;;5042381;28;20033;-76
2021/07/19 07:07:07;;;;;;;13.18;8.73;;;;;;;;;;5042392;28;20021;-76
2021/07/19 07:09:33;;;;;;;12.90;8.25;;;;;;;;;;5041811;28;20460;-76
2021/07/19 07:11:59;;;;;;;15.23;8.27;;;;;;;;;;5060757;28;20025;-77
2021/07/19 07:14:24;;;;;;;11.27;7.70;;;;;;;;;;5040004;28;20125;-76
2021/07/19 07:16:50;;;;;;;9.75;6.57;;;;;;;;;;5039517;28;20025;-76
2021/07/19 07:19:16;;;;;;;13.68;8.32;;;;;;;;;;5043968;28;20017;-77
2021/07/19 07:21:42;;;;;;;9.10;7.35;;;;;;;;;;5040759;28;20112;-77
2021/07/19 07:24:07;;;;;;;9.20;7.53;;;;;;;;;;5040773;28;20218;-76
2021/07/19 07:26:33;;;;;;;11.13;7.15;;;;;;;;;;5040081;28;20047;-77
2021/07/19 07:28:58;;;;;;;13.02;7.93;;;;;;;;;;5044141;28;20032;-78
2021/07/19 07:31:27;;;;;;;11.32;7.50;;;;;;;;;;5036088;28;20024;-77
2021/07/19 07:33:55;;;;;;;10.90;7.68;;;;;;;;;;5033786;28;20033;-77
2021/07/19 07:36:25;;;;;;;9.98;7.38;;;;;;;;;;5041186;28;20099;-77
2021/07/19 07:38:51;;;;;;;10.10;7.25;;;;;;;;;;5035251;28;20037;-77
2021/07/19 07:41:17;;;;;;;13.20;7.28;;;;;;;;;;5037234;28;20029;-78
2021/07/19 07:43:43;;;;;;;9.80;7.40;;;;;;;;;;5034414;28;20087;-77
2021/07/19 07:46:09;;;;;;;10.70;7.38;;;;;;;;;;5043122;28;20440;-77
2021/07/19 07:48:36;;;;;;;10.02;7.15;;;;;;;;;;5039808;28;20036;-77
2021/07/19 07:51:02;;;;;;;9.65;7.10;;;;;;;;;;5040916;28;20024;-77
2021/07/19 07:53:28;;;;;;;10.90;7.57;;;;;;;;;;5038032;28;20103;-77
2021/07/19 07:55:53;;;;;;;11.30;7.90;;;;;;;;;;5039977;28;20024;-77
2021/07/19 07:58:19;;;;;;;9.43;7.35;;;;;;;;;;5034525;28;20025;-77
2021/07/19 08:00:44;;;;;;;9.65;7.03;;;;;;;;;;5036947;28;20152;-77
2021/07/19 08:03:11;;;;;;;7.47;6.35;;;;;;;;;;5042421;28;20029;-77
2021/07/19 08:05:36;;;;;;;10.95;6.82;;;;;;;;;;5034407;28;20075;-78
2021/07/19 08:08:02;;;;;;;10.35;7.22;;;;;;;;;;5053631;28;20033;-78
2021/07/19 08:10:27;;;;;;;10.75;6.82;;;;;;;;;;5032059;28;20120;-77
2021/07/19 08:12:52;;;;;;;9.52;6.80;;;;;;;;;;5048617;28;20067;-77
2021/07/19 08:15:18;;;;;;;9.50;7.38;;;;;;;;;;5043727;28;20025;-78
2021/07/19 08:17:44;;;;;;;10.65;6.45;;;;;;;;;;5039199;28;20026;-77
2021/07/19 08:20:11;;;;;;;9.32;6.25;;;;;;;;;;5034518;28;20116;-77
2021/07/19 08:22:36;;;;;;;9.10;6.63;;;;;;;;;;5041657;28;20026;-78
2021/07/19 08:25:03;;;;;;;8.55;6.35;;;;;;;;;;5043858;28;20062;-77
2021/07/19 08:27:28;;;;;;;9.50;6.50;;;;;;;;;;5031744;28;20021;-78
2021/07/19 08:29:54;;;;;;;8.55;6.15;;;;;;;;;;5038261;28;20031;-78
2021/07/19 08:32:20;;;;;;;8.15;6.05;;;;;;;;;;5038655;28;20056;-77
2021/07/19 08:34:46;;;;;;;8.35;5.90;;;;;;;;;;5040323;28;20021;-77
2021/07/19 08:37:15;;;;;;;9.15;6.13;;;;;;;;;;5039431;28;20146;-78
2021/07/19 08:39:42;;;;;;;10.07;6.38;;;;;;;;;;5038949;28;20390;-78
2021/07/19 08:42:13;;;;;;;10.85;7.05;;;;;;;;;;5040892;28;20082;-77
2021/07/19 08:44:40;;;;;;;10.55;7.57;;;;;;;;;;5030145;28;20029;-78
2021/07/19 08:47:07;;;;;;;10.40;7.25;;;;;;;;;;5045178;28;20032;-77
2021/07/19 08:49:33;;;;;;;8.32;6.80;;;;;;;;;;5038245;28;20415;-77
2021/07/19 08:51:59;;;;;;;8.77;6.38;;;;;;;;;;5036408;28;20504;-76
2021/07/19 08:54:27;;;;;;;10.10;7.15;;;;;;;;;;5044326;28;20028;-77
2021/07/19 08:56:55;;;;;;;8.52;5.97;;;;;;;;;;5038830;28;20532;-77
2021/07/19 08:59:21;;;;;;;11.25;6.32;;;;;;;;;;5033694;28;20040;-77
2021/07/19 09:01:47;;;;;;;8.90;5.85;;;;;;;;;;5036217;28;20100;-77
2021/07/19 09:04:17;;;;;;;10.30;6.70;;;;;;;;;;5043764;28;20534;-77
2021/07/19 09:06:44;;;;;;;11.35;6.55;;;;;;;;;;5041751;28;21105;-78
2021/07/19 09:09:10;;;;;;;9.70;5.90;;;;;;;;;;5037730;28;20053;-78
2021/07/19 09:11:35;;;;;;;9.15;6.43;;;;;;;;;;5040798;28;20071;-78
2021/07/19 09:14:03;;;;;;;9.57;6.95;;;;;;;;;;5040064;28;20029;-77
2021/07/19 09:16:58;;;;;;;8.60;6.20;;;;;;;;;;5040086;28;20242;-77
2021/07/19 09:19:25;;;;;;;10.85;6.90;;;;;;;;;;5044675;28;20082;-77
2021/07/19 09:21:56;;;;;;;9.65;6.35;;;;;;;;;;5043295;28;20028;-78
2021/07/19 09:24:25;;;;;;;8.73;6.22;;;;;;;;;;5044896;28;20029;-77
2021/07/19 09:26:52;;;;;;;9.88;6.65;;;;;;;;;;5042481;28;20130;-77
2021/07/19 09:29:20;;;;;;;7.93;6.40;;;;;;;;;;5040605;28;20477;-77
2021/07/19 09:31:52;;;;;;;6.88;5.65;;;;;;;;;;5044440;28;20036;-77
2021/07/19 09:34:29;;;;;;;10.23;5.82;;;;;;;;;;5038213;28;20048;-78
2021/07/19 09:36:57;;;;;;;8.02;6.63;;;;;;;;;;5039817;28;20020;-78
2021/07/19 09:39:23;;;;;;;9.20;6.50;;;;;;;;;;5041636;28;20032;-77
2021/07/19 09:41:49;;;;;;;8.05;5.97;;;;;;;;;;5036716;28;20021;-77
2021/07/19 09:44:14;;;;;;;7.15;5.78;;;;;;;;;;5043825;28;20025;-77
2021/07/19 09:46:40;;;;;;;8.43;5.55;;;;;;;;;;5042997;28;20039;-78
2021/07/19 09:49:06;;;;;;;7.13;6.00;;;;;;;;;;5033582;28;20033;-78
2021/07/19 09:51:34;;;;;;;9.57;5.63;;;;;;;;;;5044359;28;20108;-78
2021/07/19 09:54:13;;;;;;;8.57;6.05;;;;;;;;;;5037445;28;20036;-78
2021/07/19 09:56:40;;;;;;;;;;;;;;;;;;5041013;28;20029;-77
2021/07/19 09:59:08;;;;;;;6.32;5.72;;;;;;;;;;5045309;28;19923;-77
2021/07/19 10:01:40;;;;;;;6.65;5.45;;;;;;;;;;5041702;28;20108;-78
2021/07/19 10:04:07;;;;;;;6.88;5.43;;;;;;;;;;5038360;28;20051;-78
2021/07/19 10:06:35;;;;;;;7.30;5.90;;;;;;;;;;5039140;28;20112;-77
2021/07/19 10:09:01;;;;;;;9.57;6.00;;;;;;;;;;5042741;28;20503;-79
2021/07/19 10:11:32;;;;;;;12.10;5.25;;;;;;;;;;5040600;28;20036;-78
2021/07/19 10:13:57;;;;;;;7.90;5.40;;;;;;;;;;5038244;28;20087;-78
2021/07/19 10:16:27;;;;;;;7.63;5.40;;;;;;;;;;5034185;28;20037;-77
2021/07/19 10:18:54;;;;;;;7.65;5.80;;;;;;;;;;5032020;28;20033;-78
2021/07/19 10:21:21;;;;;;;6.38;5.22;;;;;;;;;;5040728;28;20033;-77
2021/07/19 10:23:47;;;;;;;9.38;5.63;;;;;;;;;;5044467;28;20507;-77
2021/07/19 10:26:12;;;;;;;6.70;5.15;;;;;;;;;;5039431;28;20041;-77
2021/07/19 10:28:38;;;;;;;8.63;5.10;;;;;;;;;;5043883;28;20046;-77
2021/07/19 10:31:04;;;;;;;7.07;5.10;;;;;;;;;;5037879;28;20198;-77
2021/07/19 10:33:31;;;;;;;8.60;5.10;;;;;;;;;;5040938;28;20033;-76
2021/07/19 10:36:01;;;;;;;7.43;5.18;;;;;;;;;;5042117;28;20158;-76
2021/07/19 10:38:29;;;;;;;8.38;5.20;;;;;;;;;;5045448;28;20584;-77
2021/07/19 10:40:57;;;;;;;6.13;4.47;;;;;;;;;;5046312;28;20108;-76
2021/07/19 10:43:24;;;;;;;8.77;4.57;;;;;;;;;;5048633;28;20025;-77
2021/07/19 10:45:53;;;;;;;5.40;4.82;;;;;;;;;;5039741;28;20030;-77
2021/07/19 10:48:27;;;;;;;6.47;5.07;;;;;;;;;;5045394;28;20400;-77
2021/07/19 10:50:54;;;;;;;8.63;5.47;;;;;;;;;;5041233;28;20404;-76
2021/07/19 10:53:22;;;;;;;8.30;4.70;;;;;;;;;;5037033;28;20053;-76
2021/07/19 10:56:07;;;;;;;5.30;4.50;;;;;;;;;;5043220;28;20021;-76
2021/07/19 10:58:50;;;;;;;6.70;4.63;;;;;;;;;;5038331;28;20044;-75
2021/07/19 11:01:23;;;;;;;7.72;4.75;;;;;;;;;;5040106;28;20089;-76
2021/07/19 11:03:49;;;;;;;6.43;4.60;;;;;;;;;;5060258;28;20047;-76
2021/07/19 11:06:18;;;;;;;6.78;4.90;;;;;;;;;;5041039;28;20071;-77
2021/07/19 11:08:48;;;;;;;;;;;;;;;;;;5041332;28;20029;-77
2021/07/19 11:11:34;;;;;;;6.35;5.15;;;;;;;;;;5035642;28;19959;-78
2021/07/19 11:14:02;;;;;;;5.15;4.13;;;;;;;;;;5042701;28;20369;-77
2021/07/19 11:16:42;;;;;;;8.82;4.70;;;;;;;;;;5047068;28;20392;-77
2021/07/19 11:19:09;;;;;;;6.25;4.63;;;;;;;;;;5060230;28;20488;-77
2021/07/19 11:21:35;;;;;;;5.72;4.55;;;;;;;;;;5044047;28;20041;-78
2021/07/19 11:24:37;;;;;;;8.15;4.65;;;;;;;;;;5043330;28;20035;-78
2021/07/19 11:27:03;;;;;;;8.13;4.78;;;;;;;;;;5038724;28;20037;-77
2021/07/19 11:29:34;;;;;;;6.07;5.10;;;;;;;;;;5039602;28;20031;-78
2021/07/19 11:32:23;;;;;;;8.02;5.15;;;;;;;;;;5040567;28;20030;-78
2021/07/19 11:34:49;;;;;;;;;;;;;;;;;;5039583;28;20025;-78
2021/07/19 11:37:17;;;;;;;4.93;4.45;;;;;;;;;;5045229;28;19913;-79
2021/07/19 11:39:53;;;;;;;7.67;4.57;;;;;;;;;;5045185;28;20484;-78
2021/07/19 11:42:35;;;;;;;9.60;4.90;;;;;;;;;;5037734;28;20276;-77
2021/07/19 11:45:07;;;;;;;5.88;4.88;;;;;;;;;;5037939;28;20472;-77
2021/07/19 11:47:39;;;;;;;5.70;4.60;;;;;;;;;;5037914;28;20029;-77
2021/07/19 11:50:05;;;;;;;5.38;4.00;;;;;;;;;;5048486;28;20078;-77
2021/07/19 11:52:31;;;;;;;6.70;4.47;;;;;;;;;;5040407;28;20021;-77
2021/07/19 11:54:57;;;;;;;8.85;4.50;;;;;;;;;;5045784;28;20056;-77
2021/07/19 11:57:23;;;;;;;5.63;4.07;;;;;;;;;;5046359;28;20028;-77
2021/07/19 11:59:48;;;;;;;4.47;3.80;;;;;;;;;;5046559;28;20080;-77
2021/07/19 12:02:25;;;;;;;5.93;4.03;;;;;;;;;;5040633;28;20521;-78
2021/07/19 12:04:50;;;;;;;4.35;3.95;;;;;;;;;;5038149;28;20029;-78
2021/07/19 12:07:16;;;;;;;4.55;4.05;;;;;;;;;;5043139;28;20025;-78
2021/07/19 12:09:44;;;;;;;4.95;4.20;;;;;;;;;;5040859;28;20018;-78
2021/07/19 12:12:11;;;;;;;5.40;4.13;;;;;;;;;;5047250;28;20047;-78
2021/07/19 12:14:36;;;;;;;4.70;4.10;;;;;;;;;;5043829;28;20033;-78
2021/07/19 12:17:04;;;;;;;5.63;4.32;;;;;;;;;;5041827;28;20036;-77
2021/07/19 12:19:29;;;;;;;7.40;3.97;;;;;;;;;;5042393;28;20059;-78
2021/07/19 12:22:00;;;;;;;4.75;4.13;;;;;;;;;;5058261;28;20708;-78
2021/07/19 12:24:29;;;;;;;5.65;3.53;;;;;;;;;;5043655;28;20055;-78
2021/07/19 12:26:55;;;;;;;;;;;;;;;;;;5037498;28;20377;-78
2021/07/19 12:29:29;;;;;;;6.10;3.53;;;;;;;;;;5043589;28;19913;-78
2021/07/19 12:32:03;;;;;;;5.43;3.60;;;;;;;;;;5045598;28;20055;-78
2021/07/19 12:34:32;;;;;;;4.65;3.53;;;;;;;;;;5038245;28;20037;-78
2021/07/19 12:37:05;;;;;;;5.65;3.42;;;;;;;;;;5036159;28;20028;-78
2021/07/19 12:39:33;;;;;;;6.50;3.78;;;;;;;;;;5040108;28;20025;-78
2021/07/19 12:42:03;;;;;;;6.57;3.88;;;;;;;;;;5041376;28;20111;-78
2021/07/19 12:44:30;;;;;;;5.80;3.63;;;;;;;;;;5044314;28;20115;-77
2021/07/19 12:46:56;;;;;;;4.00;3.60;;;;;;;;;;5034233;28;20021;-78
2021/07/19 12:49:30;;;;;;;6.20;3.33;;;;;;;;;;5038613;28;20059;-77
2021/07/19 12:51:59;;;;;;;7.05;3.30;;;;;;;;;;5044196;28;20070;-78
2021/07/19 12:54:25;;;;;;;4.72;3.40;;;;;;;;;;5044208;28;20095;-77
2021/07/19 12:56:50;;;;;;;6.57;3.50;;;;;;;;;;5041744;28;20025;-79
2021/07/19 12:59:16;;;;;;;4.57;3.42;;;;;;;;;;5035837;28;20369;-79
2021/07/19 13:01:45;;;;;;;5.63;3.40;;;;;;;;;;5037176;28;20048;-79
2021/07/19 13:04:12;;;;;;;5.25;3.33;;;;;;;;;;5038431;28;20047;-78
2021/07/19 13:06:42;;;;;;;5.28;2.72;;;;;;;;;;5037302;28;20029;-77
2021/07/19 13:09:10;;;;;;;5.00;3.20;;;;;;;;;;5041144;28;20381;-78
2021/07/19 13:11:38;;;;;;;6.07;3.28;;;;;;;;;;5031954;28;20374;-78
2021/07/19 13:14:13;;;;;;;3.65;3.08;;;;;;;;;;5035541;28;20101;-78
2021/07/19 13:16:40;;;;;;;4.40;2.80;;;;;;;;;;5038937;28;20053;-78
2021/07/19 13:19:05;;;;;;;4.85;3.50;;;;;;;;;;5034767;28;20119;-76
2021/07/19 13:21:31;;;;;;;6.28;3.53;;;;;;;;;;5040535;28;20682;-76
2021/07/19 13:23:57;;;;;;;6.03;3.58;;;;;;;;;;5037584;28;20085;-78
2021/07/19 13:26:31;;;;;;;6.15;3.08;;;;;;;;;;5035250;28;20242;-76
2021/07/19 13:29:06;;;;;;;5.85;3.38;;;;;;;;;;5039873;28;20469;-78
2021/07/19 13:31:32;;;;;;;5.25;3.00;;;;;;;;;;5032903;28;20131;-77
2021/07/19 13:33:58;;;;;;;5.88;3.35;;;;;;;;;;5045448;28;20087;-78
2021/07/19 13:36:31;;;;;;;4.80;3.45;;;;;;;;;;5039356;28;20025;-77
2021/07/19 13:38:58;;;;;;;4.70;3.08;;;;;;;;;;5041367;28;20068;-78
2021/07/19 13:41:24;;;;;;;4.53;3.28;;;;;;;;;;5042895;28;20033;-80
2021/07/19 13:43:59;;;;;;;6.00;3.15;;;;;;;;;;5034378;28;20017;-79
2021/07/19 13:46:24;;;;;;;4.18;2.72;;;;;;;;;;5039741;28;20488;-77
2021/07/19 13:48:50;;;;;;;6.05;3.10;;;;;;;;;;5039769;28;20044;-78
2021/07/19 13:51:15;;;;;;;5.43;3.35;;;;;;;;;;5037282;28;20032;-78
2021/07/19 13:53:40;;;;;;;5.00;3.00;;;;;;;;;;5040868;28;20044;-76
2021/07/19 13:56:06;;;;;;;4.80;2.88;;;;;;;;;;5039546;28;20410;-79
2021/07/19 13:58:32;;;;;;;3.60;3.17;;;;;;;;;;5039757;28;20037;-78
2021/07/19 14:00:58;;;;;;;7.72;2.92;;;;;;;;;;5038489;28;20035;-79
2021/07/19 14:03:24;;;;;;;5.85;2.70;;;;;;;;;;5038407;28;20021;-78
2021/07/19 14:05:49;;;;;;;7.40;2.58;;;;;;;;;;5041209;28;21005;-78
2021/07/19 14:08:16;;;;;;;5.53;2.63;;;;;;;;;;5040549;28;20528;-78
2021/07/19 14:10:42;;;;;;;5.05;2.50;;;;;;;;;;5047290;28;20033;-78
2021/07/19 14:13:08;;;;;;;5.05;3.10;;;;;;;;;;5040758;28;20099;-79
2021/07/19 14:15:34;;;;;;;7.85;2.80;;;;;;;;;;5041276;28;20033;-78
2021/07/19 14:18:00;;;;;;;4.28;2.55;;;;;;;;;;5044885;28;20033;-78
2021/07/19 14:20:26;;;;;;;4.15;2.50;;;;;;;;;;5042833;28;20090;-78
2021/07/19 14:22:52;;;;;;;6.80;2.50;;;;;;;;;;5045838;28;20051;-75
2021/07/19 14:25:18;;;;;;;3.70;2.70;;;;;;;;;;5038022;28;20108;-75
2021/07/19 14:27:43;;;;;;;8.05;2.75;;;;;;;;;;5039498;28;20489;-75
2021/07/19 14:30:12;;;;;;;3.42;2.50;;;;;;;;;;5044150;28;20033;-75
2021/07/19 14:32:41;;;;;;;4.15;2.38;;;;;;;;;;5048276;28;20028;-76
2021/07/19 14:35:12;;;;;;;4.50;2.28;;;;;;;;;;5043866;28;20115;-75
2021/07/19 14:37:39;;;;;;;3.97;2.28;;;;;;;;;;5052358;28;20029;-77
2021/07/19 14:40:06;;;;;;;4.65;2.17;;;;;;;;;;5045750;28;20087;-76
2021/07/19 14:42:32;;;;;;;2.50;1.92;;;;;;;;;;5042412;28;20033;-76
2021/07/19 14:44:57;;;;;;;1.60;1.50;;;;;;;;;;5044930;28;20104;-75